Time;durP1;ratioP1;P1;durP2;ratioP2;P2;SDS_P1;SDS_P2;PMS_P1;PMS_P2;Temp;Humidity;BMP_temperature;BMP_pressure;BME280_temperature;BME280_humidity;BME280_pressure;Samples;Min_cycle;Max_cycle;Signal;HPM_P1;HPM_P2
2023/01/31 00:01:34;;;;;;;22.47;7.97;;;5.80;95.80;;;;;;5054940;28;20173;-88
2023/01/31 00:04:02;;;;;;;25.43;9.07;;;5.90;96.90;;;;;;5055825;28;20153;-88
2023/01/31 00:06:34;;;;;;;23.67;8.33;;;5.80;95.80;;;;;;5054627;28;20288;-88
2023/01/31 00:09:01;;;;;;;22.70;9.17;;;5.80;96.60;;;;;;5055805;28;20173;-89
2023/01/31 00:11:29;;;;;;;20.83;8.43;;;5.80;95.80;;;;;;5070104;28;20232;-90
2023/01/31 00:13:58;;;;;;;21.43;8.57;;;5.80;95.00;;;;;;5056951;28;20618;-89
2023/01/31 00:16:24;;;;;;;24.57;9.27;;;5.70;94.60;;;;;;5054317;28;20266;-89
2023/01/31 00:18:50;;;;;;;22.27;9.07;;;5.60;95.10;;;;;;5055565;28;20174;-90
2023/01/31 00:21:16;;;;;;;21.93;8.83;;;5.60;96.20;;;;;;5058317;28;20253;-90
2023/01/31 00:23:43;;;;;;;25.33;8.83;;;5.50;97.20;;;;;;5076228;28;20175;-88
2023/01/31 00:26:17;;;;;;;25.23;9.77;;;5.50;97.60;;;;;;5077376;28;20196;-90
2023/01/31 00:28:45;;;;;;;23.50;8.53;;;5.50;97.50;;;;;;5076778;28;20180;-90
2023/01/31 00:31:32;;;;;;;23.23;8.20;;;5.40;97.80;;;;;;5069933;28;20169;-89
2023/01/31 00:34:50;;;;;;;22.17;8.00;;;5.40;97.80;;;;;;5063149;28;20169;-89
2023/01/31 00:37:23;;;;;;;22.60;8.00;;;5.40;97.60;;;;;;5068386;28;20153;-89
2023/01/31 00:39:54;;;;;;;23.80;8.27;;;5.30;97.80;;;;;;5055768;28;20195;-90
2023/01/31 00:42:19;;;;;;;19.47;7.67;;;5.30;98.00;;;;;;5055255;28;20169;-89
2023/01/31 00:44:45;;;;;;;18.17;8.00;;;5.30;98.30;;;;;;5053673;28;20222;-90
2023/01/31 00:47:11;;;;;;;20.97;9.03;;;5.30;98.00;;;;;;5055796;28;20177;-89
2023/01/31 00:49:42;;;;;;;23.30;8.20;;;5.20;97.60;;;;;;5058470;28;20173;-87
2023/01/31 00:52:07;;;;;;;17.73;8.10;;;5.30;97.60;;;;;;5066301;28;20200;-84
2023/01/31 00:54:33;;;;;;;23.33;8.43;;;5.30;97.70;;;;;;5069933;28;20197;-88
2023/01/31 00:56:59;;;;;;;22.20;8.60;;;5.30;95.90;;;;;;5073633;28;20230;-87
2023/01/31 00:59:25;;;;;;;24.43;9.00;;;5.30;95.70;;;;;;5067037;28;20168;-85
2023/01/31 01:01:51;;;;;;;19.57;8.77;;;5.30;94.60;;;;;;5080542;28;20189;-83
2023/01/31 01:04:17;;;;;;;21.93;8.77;;;5.20;93.90;;;;;;5057638;28;20184;-85
2023/01/31 01:06:46;;;;;;;28.07;8.27;;;5.10;94.10;;;;;;5062714;28;20173;-89
2023/01/31 01:09:16;;;;;;;20.60;8.23;;;5.10;94.10;;;;;;5058266;28;20181;-90
2023/01/31 01:11:41;;;;;;;18.10;7.87;;;5.10;94.30;;;;;;5057873;28;20172;-89
2023/01/31 01:14:07;;;;;;;19.50;8.70;;;5.00;94.20;;;;;;5058481;28;20506;-85
2023/01/31 01:16:36;;;;;;;17.73;8.43;;;5.00;94.40;;;;;;5068299;28;20242;-84
2023/01/31 01:19:07;;;;;;;17.13;7.90;;;5.00;94.10;;;;;;5079672;28;20164;-83
2023/01/31 01:21:39;;;;;;;19.10;8.17;;;5.10;94.60;;;;;;5078696;28;20203;-88
2023/01/31 01:24:15;;;;;;;15.67;7.40;;;5.00;94.60;;;;;;5061779;28;20259;-89
2023/01/31 01:26:46;;;;;;;23.53;8.60;;;5.00;94.70;;;;;;5057957;28;20233;-87
2023/01/31 01:29:12;;;;;;;24.83;8.33;;;4.80;93.60;;;;;;5057531;28;20589;-90
2023/01/31 01:31:38;;;;;;;20.87;7.53;;;4.80;94.50;;;;;;5058689;28;20169;-90
2023/01/31 01:34:13;;;;;;;19.67;8.27;;;4.80;94.50;;;;;;5073132;28;20181;-86
2023/01/31 01:36:39;;;;;;;20.37;8.33;;;4.70;95.20;;;;;;5072221;28;20211;-88
2023/01/31 01:39:10;;;;;;;19.10;9.13;;;4.80;95.50;;;;;;5060999;28;20610;-89
2023/01/31 01:41:40;;;;;;;19.73;7.80;;;4.80;95.30;;;;;;5062281;28;20165;-90
2023/01/31 01:44:43;;;;;;;19.07;8.00;;;5.00;94.70;;;;;;5078632;28;20221;-89
2023/01/31 01:47:31;;;;;;;19.60;8.73;;;4.70;93.80;;;;;;5074446;28;20185;-89
2023/01/31 01:50:02;;;;;;;18.30;8.10;;;4.70;93.80;;;;;;5063199;28;20169;-88
2023/01/31 01:52:29;;;;;;;26.93;9.50;;;4.70;93.10;;;;;;5056458;28;20199;-89
2023/01/31 01:55:24;;;;;;;16.00;8.00;;;4.70;93.00;;;;;;5056481;28;20199;-89
2023/01/31 01:57:55;;;;;;;17.87;8.67;;;4.70;92.70;;;;;;5058683;28;20176;-89
2023/01/31 02:00:23;;;;;;;19.40;8.10;;;4.70;91.50;;;;;;5063538;28;20179;-88
2023/01/31 02:02:53;;;;;;;17.13;7.67;;;4.70;91.60;;;;;;5063131;28;20173;-89
2023/01/31 02:05:25;;;;;;;19.00;9.10;;;4.80;91.70;;;;;;5071362;28;20231;-88
2023/01/31 02:07:50;;;;;;;17.47;9.20;;;4.90;91.30;;;;;;5070188;28;20579;-85
2023/01/31 02:10:35;;;;;;;21.90;8.50;;;4.70;87.10;;;;;;5078194;28;20173;-88
2023/01/31 02:13:02;;;;;;;22.60;9.47;;;4.90;84.10;;;;;;5079640;28;20168;-84
2023/01/31 02:15:28;;;;;;;20.77;8.70;;;4.90;82.80;;;;;;5078437;28;20195;-84
2023/01/31 02:17:54;;;;;;;21.80;8.30;;;4.80;79.30;;;;;;5075060;28;20204;-87
2023/01/31 02:20:32;;;;;;;17.43;8.80;;;4.80;83.00;;;;;;5059473;28;21098;-89
2023/01/31 02:23:25;;;;;;;18.40;9.13;;;4.80;84.20;;;;;;5057605;28;20183;-88
2023/01/31 02:25:57;;;;;;;17.63;8.50;;;4.70;81.50;;;;;;5057004;28;20263;-90
2023/01/31 02:29:02;;;;;;;16.53;8.10;;;4.70;83.40;;;;;;5056569;28;20169;-89
2023/01/31 02:31:57;;;;;;;19.37;7.87;;;4.70;85.30;;;;;;5056966;28;20173;-89
2023/01/31 02:34:31;;;;;;;19.50;8.77;;;4.60;84.10;;;;;;5061688;28;20268;-89
2023/01/31 02:37:09;;;;;;;18.27;8.43;;;4.50;86.80;;;;;;5068881;28;20179;-89
2023/01/31 02:39:51;;;;;;;23.57;8.17;;;4.40;89.60;;;;;;5067569;28;20169;-86
2023/01/31 02:42:35;;;;;;;25.57;8.63;;;4.30;91.00;;;;;;5077598;28;20161;-88
2023/01/31 02:45:15;;;;;;;19.93;8.77;;;4.20;92.90;;;;;;5055181;28;20236;-88
2023/01/31 02:48:03;;;;;;;19.07;8.73;;;4.10;94.10;;;;;;5055822;28;20171;-88
2023/01/31 02:50:37;;;;;;;20.17;8.53;;;4.10;95.20;;;;;;5059841;28;20177;-87
2023/01/31 02:53:24;;;;;;;26.20;8.97;;;4.10;96.00;;;;;;5058277;28;20173;-88
2023/01/31 02:56:18;;;;;;;25.07;8.80;;;4.00;96.00;;;;;;5055201;28;20664;-89
2023/01/31 02:59:05;;;;;;;17.27;7.90;;;4.00;96.90;;;;;;5058362;28;20165;-88
2023/01/31 03:01:38;;;;;;;21.77;9.53;;;3.90;97.90;;;;;;5056767;28;20203;-86
2023/01/31 03:04:08;;;;;;;16.97;8.43;;;3.90;98.60;;;;;;5055963;28;20306;-87
2023/01/31 03:06:34;;;;;;;16.67;8.03;;;3.90;99.10;;;;;;5055968;28;20232;-86
2023/01/31 03:09:20;;;;;;;26.00;9.27;;;3.90;99.20;;;;;;5055539;28;20173;-87
2023/01/31 03:12:01;;;;;;;16.43;8.17;;;3.90;98.90;;;;;;5055815;28;20191;-87
2023/01/31 03:15:24;;;;;;;20.63;8.43;;;3.90;99.00;;;;;;5054733;28;20263;-89
2023/01/31 03:18:08;;;;;;;18.90;8.40;;;3.80;98.80;;;;;;4998343;28;20178;-89
2023/01/31 03:21:00;;;;;;;21.17;9.87;;;3.80;99.30;;;;;;5009762;28;20193;-87
2023/01/31 03:23:29;;;;;;;23.23;9.73;;;3.80;99.40;;;;;;5069092;28;20180;-87
2023/01/31 03:26:01;;;;;;;23.73;10.17;;;3.80;99.20;;;;;;5071630;28;20208;-87
2023/01/31 03:28:55;;;;;;;23.23;10.60;;;3.80;99.30;;;;;;5070794;28;20177;-84
2023/01/31 03:31:28;;;;;;;18.30;9.70;;;3.70;99.70;;;;;;5057748;28;20264;-88
2023/01/31 03:33:58;;;;;;;22.37;10.40;;;3.70;99.90;;;;;;5063164;28;20169;-86
2023/01/31 03:36:45;;;;;;;17.70;9.60;;;3.60;99.90;;;;;;5068121;28;20169;-88
2023/01/31 03:39:36;;;;;;;20.43;9.40;;;3.70;99.90;;;;;;5075276;28;20181;-86
2023/01/31 03:45:51;;;;;;;21.50;9.17;;;3.60;99.90;;;;;;5070004;28;20211;-88
2023/01/31 03:48:50;;;;;;;21.23;9.07;;;3.70;99.90;;;;;;5061702;28;20161;-89
2023/01/31 03:51:23;;;;;;;23.37;9.57;;;3.60;99.90;;;;;;5055051;28;20188;-85
2023/01/31 03:53:53;;;;;;;22.90;9.33;;;3.60;99.90;;;;;;5055516;28;20246;-89
2023/01/31 03:56:29;;;;;;;21.60;8.50;;;3.60;99.90;;;;;;5043096;28;20183;-87
2023/01/31 03:59:06;;;;;;;18.60;8.43;;;3.70;99.90;;;;;;5061753;28;20289;-89
2023/01/31 04:01:34;;;;;;;18.07;8.60;;;3.60;99.90;;;;;;5056672;28;20164;-89
2023/01/31 04:04:10;;;;;;;23.07;9.47;;;3.70;99.90;;;;;;5057177;28;20247;-88
2023/01/31 04:06:36;;;;;;;22.03;8.77;;;3.70;99.90;;;;;;5039992;28;20709;-89
2023/01/31 04:09:02;;;;;;;15.80;8.80;;;3.60;99.90;;;;;;5060526;28;20177;-87
2023/01/31 04:11:28;;;;;;;21.10;8.90;;;3.70;99.90;;;;;;5067923;28;20183;-85
2023/01/31 04:13:53;;;;;;;19.60;8.77;;;3.60;99.90;;;;;;5067014;28;20189;-85
2023/01/31 04:16:19;;;;;;;18.90;8.30;;;3.60;99.90;;;;;;5066585;28;20177;-85
2023/01/31 04:18:45;;;;;;;19.50;9.43;;;3.60;99.90;;;;;;5063775;28;20181;-87
2023/01/31 04:21:14;;;;;;;23.70;8.67;;;3.60;99.90;;;;;;5060351;28;20189;-88
2023/01/31 04:23:39;;;;;;;16.17;7.87;;;3.80;99.90;;;;;;5056518;28;20161;-88
2023/01/31 04:26:05;;;;;;;17.03;8.57;;;3.80;99.90;;;;;;5058131;28;20709;-88
2023/01/31 04:28:31;;;;;;;15.40;8.40;;;3.80;99.90;;;;;;5058186;28;20184;-88
2023/01/31 04:30:57;;;;;;;23.00;8.53;;;3.80;99.90;;;;;;5060442;28;20184;-88
2023/01/31 04:33:23;;;;;;;20.43;8.50;;;3.90;99.90;;;;;;5060841;28;20161;-88
2023/01/31 04:35:52;;;;;;;16.67;7.97;;;3.70;99.90;;;;;;5060316;28;20223;-87
2023/01/31 04:38:17;;;;;;;17.23;8.93;;;3.60;99.90;;;;;;5061495;28;20179;-85
2023/01/31 04:40:43;;;;;;;16.00;7.90;;;3.70;99.90;;;;;;5067524;28;20173;-87
2023/01/31 04:43:09;;;;;;;17.20;7.77;;;3.70;99.90;;;;;;5073121;28;20215;-88
2023/01/31 04:45:34;;;;;;;18.30;8.67;;;3.60;99.90;;;;;;5080913;28;20197;-87
2023/01/31 04:48:01;;;;;;;17.87;7.67;;;3.50;99.90;;;;;;5062761;28;20173;-85
2023/01/31 04:50:27;;;;;;;19.23;9.00;;;3.50;99.90;;;;;;5057161;28;20664;-87
2023/01/31 04:52:52;;;;;;;17.83;7.17;;;3.50;99.90;;;;;;5057890;28;20169;-88
2023/01/31 04:55:18;;;;;;;18.73;8.07;;;3.50;99.90;;;;;;5056511;28;20239;-88
2023/01/31 04:57:44;;;;;;;22.70;8.03;;;3.50;99.90;;;;;;5056223;28;20169;-89
2023/01/31 05:00:10;;;;;;;19.37;7.47;;;3.50;99.90;;;;;;5060655;28;20176;-88
2023/01/31 05:02:36;;;;;;;14.00;6.90;;;3.50;99.90;;;;;;5066381;28;20172;-87
2023/01/31 05:05:03;;;;;;;21.17;7.43;;;3.40;99.90;;;;;;5064709;28;20262;-89
2023/01/31 05:07:29;;;;;;;19.13;6.97;;;3.40;99.90;;;;;;5064112;28;20188;-89
2023/01/31 05:09:55;;;;;;;23.00;7.53;;;3.50;99.90;;;;;;5062098;28;20162;-89
2023/01/31 05:12:20;;;;;;;15.73;7.27;;;3.50;99.90;;;;;;5058703;28;20184;-87
2023/01/31 05:14:46;;;;;;;14.13;6.30;;;3.50;99.90;;;;;;5058003;28;20185;-87
2023/01/31 05:17:12;;;;;;;15.90;8.30;;;3.50;99.90;;;;;;5060415;28;20176;-87
2023/01/31 05:19:38;;;;;;;15.57;6.97;;;3.50;99.90;;;;;;5070761;28;20240;-89
2023/01/31 05:22:04;;;;;;;13.93;6.60;;;3.50;99.90;;;;;;5057251;28;20236;-87
2023/01/31 05:24:32;;;;;;;19.70;6.80;;;3.60;99.90;;;;;;5063353;28;20173;-87
2023/01/31 05:27:00;;;;;;;20.53;7.37;;;3.50;99.90;;;;;;5077654;28;20173;-87
2023/01/31 05:29:29;;;;;;;22.40;6.47;;;3.50;99.90;;;;;;5074670;28;20169;-87
2023/01/31 05:31:57;;;;;;;17.90;6.83;;;3.50;99.90;;;;;;5071138;28;20268;-84
2023/01/31 05:34:25;;;;;;;15.33;6.40;;;3.50;99.90;;;;;;5075374;28;20173;-88
2023/01/31 05:36:52;;;;;;;16.73;7.13;;;3.60;99.90;;;;;;5076119;28;20166;-86
2023/01/31 05:39:59;;;;;;;15.17;6.37;;;3.60;99.90;;;;;;5078128;28;20158;-87
2023/01/31 05:42:43;;;;;;;17.67;6.63;;;3.70;99.90;;;;;;5067847;28;20218;-88
2023/01/31 05:45:11;;;;;;;18.60;7.17;;;3.70;99.90;;;;;;5059690;28;20287;-89
2023/01/31 05:47:36;;;;;;;20.40;6.53;;;3.80;99.90;;;;;;5072280;28;20200;-87
2023/01/31 05:50:04;;;;;;;20.67;7.40;;;3.90;99.90;;;;;;5079018;28;20236;-85
2023/01/31 05:52:33;;;;;;;18.47;6.93;;;3.80;99.90;;;;;;5060753;28;20167;-86
2023/01/31 05:55:02;;;;;;;16.70;6.83;;;3.80;99.90;;;;;;5078657;28;20223;-82
2023/01/31 06:04:13;;;;;;;12.17;6.17;;;3.90;99.90;;;;;;5074924;28;20149;-87
2023/01/31 06:06:44;;;;;;;12.50;6.17;;;3.90;99.90;;;;;;5062870;28;20212;-89
2023/01/31 06:09:10;;;;;;;18.10;7.00;;;3.90;99.90;;;;;;5058418;28;20200;-88
2023/01/31 06:11:36;;;;;;;20.70;6.93;;;3.80;99.90;;;;;;5057578;28;20181;-87
2023/01/31 06:14:03;;;;;;;19.97;6.57;;;3.90;99.90;;;;;;5064841;28;20212;-87
2023/01/31 06:16:29;;;;;;;18.70;7.63;;;3.80;99.90;;;;;;5043096;28;20183;-87
2023/01/31 06:18:55;;;;;;;20.17;6.77;;;3.90;99.90;;;;;;5068529;28;20200;-89
2023/01/31 06:21:22;;;;;;;18.83;6.73;;;3.90;99.90;;;;;;4928159;28;4129417;-89
2023/01/31 06:23:48;;;;;;;22.03;6.83;;;3.90;99.90;;;;;;5058898;28;20310;-88
2023/01/31 06:26:15;;;;;;;16.20;6.77;;;3.90;99.90;;;;;;5064429;28;20201;-89
2023/01/31 06:28:43;;;;;;;22.17;8.00;;;3.90;99.90;;;;;;5059719;28;20173;-90
2023/01/31 06:31:11;;;;;;;20.67;7.70;;;4.00;99.90;;;;;;5062112;28;20530;-90
2023/01/31 06:33:39;;;;;;;18.40;6.83;;;4.10;99.90;;;;;;5066225;28;20157;-89
2023/01/31 06:36:05;;;;;;;18.43;7.30;;;4.00;99.90;;;;;;5064270;28;20177;-88
2023/01/31 06:38:31;;;;;;;17.53;7.40;;;4.00;99.90;;;;;;5060601;28;20181;-87
2023/01/31 06:40:58;;;;;;;19.90;7.17;;;4.00;99.90;;;;;;5062041;28;20651;-88
2023/01/31 06:43:24;;;;;;;17.03;7.50;;;4.20;99.90;;;;;;5044015;28;20187;-90
2023/01/31 06:45:49;;;;;;;16.53;6.63;;;4.20;99.90;;;;;;5058397;28;20217;-88
2023/01/31 06:48:18;;;;;;;20.37;7.17;;;4.30;99.90;;;;;;5062387;28;20169;-87
2023/01/31 06:50:44;;;;;;;16.73;7.33;;;4.20;99.90;;;;;;5074714;28;20204;-87
2023/01/31 06:53:09;;;;;;;21.40;8.00;;;4.10;99.90;;;;;;5077625;28;20228;-86
2023/01/31 06:55:38;;;;;;;18.47;7.37;;;4.10;99.90;;;;;;5076177;28;20188;-87
2023/01/31 06:58:07;;;;;;;21.33;7.50;;;4.20;99.90;;;;;;5075559;28;20219;-85
2023/01/31 07:00:36;;;;;;;15.73;6.77;;;4.10;99.90;;;;;;5070959;28;20169;-84
2023/01/31 07:03:02;;;;;;;17.27;6.57;;;4.20;99.90;;;;;;5068999;28;20181;-86
2023/01/31 07:05:29;;;;;;;20.60;6.93;;;4.20;99.90;;;;;;5072585;28;20716;-84
2023/01/31 07:07:54;;;;;;;20.23;7.43;;;4.30;99.90;;;;;;5066790;28;20165;-84
2023/01/31 07:10:20;;;;;;;15.73;6.83;;;4.30;99.90;;;;;;5069843;28;20679;-84
2023/01/31 07:12:49;;;;;;;21.13;7.10;;;4.40;99.90;;;;;;5055221;28;20177;-87
2023/01/31 07:15:15;;;;;;;21.27;6.93;;;4.40;99.90;;;;;;5056337;28;20165;-87
2023/01/31 07:17:43;;;;;;;16.47;6.07;;;4.40;99.90;;;;;;5061407;28;20177;-87
2023/01/31 07:20:15;;;;;;;18.07;6.87;;;4.50;99.90;;;;;;5058550;28;20607;-88
2023/01/31 07:22:41;;;;;;;15.37;6.07;;;4.40;99.90;;;;;;5054646;28;20189;-89
2023/01/31 07:25:08;;;;;;;15.13;7.30;;;4.40;99.90;;;;;;5054313;28;20719;-90
2023/01/31 07:27:35;;;;;;;14.80;6.47;;;4.40;99.90;;;;;;5057062;28;20173;-88
2023/01/31 07:30:00;;;;;;;13.63;6.50;;;4.70;99.90;;;;;;5059175;28;20217;-88
2023/01/31 07:32:30;;;;;;;15.47;6.70;;;4.50;99.90;;;;;;5059632;28;20195;-88
2023/01/31 07:34:57;;;;;;;16.13;6.83;;;4.60;99.90;;;;;;5057281;28;20219;-88
2023/01/31 07:37:23;;;;;;;17.77;7.73;;;4.70;99.90;;;;;;5056417;28;20187;-88
2023/01/31 07:39:51;;;;;;;18.73;7.93;;;4.70;99.90;;;;;;5057489;28;20641;-89
2023/01/31 07:42:16;;;;;;;14.93;6.27;;;4.70;99.90;;;;;;5058357;28;20177;-89
2023/01/31 07:44:43;;;;;;;22.10;6.83;;;4.70;99.90;;;;;;5074022;28;20211;-85
2023/01/31 07:47:09;;;;;;;17.97;6.47;;;4.70;99.90;;;;;;5068547;28;20184;-84
2023/01/31 07:50:04;;;;;;;15.73;6.80;;;4.70;99.90;;;;;;5060313;28;20173;-89
2023/01/31 07:52:30;;;;;;;15.47;6.90;;;4.70;99.90;;;;;;5056662;28;20185;-87
2023/01/31 07:54:57;;;;;;;21.53;7.07;;;4.80;99.90;;;;;;5057269;28;20189;-86
2023/01/31 07:57:23;;;;;;;21.83;7.83;;;4.90;99.90;;;;;;5059748;28;20184;-87
2023/01/31 07:59:48;;;;;;;15.27;6.43;;;4.90;99.90;;;;;;5071906;28;20252;-86
2023/01/31 08:05:26;;;;;;;14.87;7.23;;;5.10;99.90;;;;;;5044041;28;20209;-88
2023/01/31 08:08:09;;;;;;;19.00;6.37;;;5.00;99.90;;;;;;5034085;28;20188;-88
2023/01/31 08:10:35;;;;;;;22.53;7.00;;;5.10;99.90;;;;;;5040215;28;20227;-87
2023/01/31 08:13:00;;;;;;;18.53;7.20;;;5.20;99.90;;;;;;5054750;28;20173;-85
2023/01/31 08:15:26;;;;;;;19.80;6.87;;;5.10;99.90;;;;;;5058534;28;20177;-87
2023/01/31 08:17:52;;;;;;;16.60;5.80;;;5.30;99.90;;;;;;5077252;28;20188;-86
2023/01/31 08:20:18;;;;;;;16.40;6.30;;;5.40;99.90;;;;;;5071867;28;20662;-85
2023/01/31 08:22:47;;;;;;;15.00;6.40;;;5.40;99.90;;;;;;5065796;28;20302;-87
2023/01/31 08:25:22;;;;;;;17.33;6.13;;;5.40;99.90;;;;;;5056380;28;20246;-87
2023/01/31 08:27:48;;;;;;;16.87;5.67;;;5.30;99.90;;;;;;5054601;28;20180;-86
2023/01/31 08:30:15;;;;;;;20.23;7.17;;;5.40;99.90;;;;;;5054269;28;20173;-88
2023/01/31 08:32:41;;;;;;;18.60;6.77;;;5.40;99.90;;;;;;5055102;28;20192;-88
2023/01/31 08:35:08;;;;;;;16.30;6.17;;;5.60;99.90;;;;;;5037453;28;20214;-88
2023/01/31 08:37:34;;;;;;;14.40;5.53;;;5.60;99.90;;;;;;5053540;28;20177;-85
2023/01/31 08:40:00;;;;;;;17.00;6.80;;;5.60;99.90;;;;;;5054241;28;20181;-89
2023/01/31 08:42:25;;;;;;;20.10;6.97;;;5.70;99.90;;;;;;5055131;28;20192;-88
2023/01/31 08:44:51;;;;;;;20.20;6.23;;;5.70;99.90;;;;;;5055475;28;20204;-87
2023/01/31 08:47:17;;;;;;;20.23;6.43;;;5.80;99.90;;;;;;5055241;28;20181;-85
2023/01/31 08:49:42;;;;;;;20.00;6.67;;;5.80;99.90;;;;;;5058167;28;20169;-88
2023/01/31 08:52:08;;;;;;;17.27;6.67;;;5.80;99.90;;;;;;5055962;28;20169;-87
2023/01/31 08:54:33;;;;;;;21.90;6.53;;;5.80;99.90;;;;;;5064222;28;20228;-88
2023/01/31 08:56:59;;;;;;;14.50;6.50;;;5.90;99.90;;;;;;5062378;28;20302;-87
2023/01/31 08:59:28;;;;;;;19.00;6.07;;;6.00;99.90;;;;;;5055952;28;20544;-87
2023/01/31 09:01:54;;;;;;;17.37;6.30;;;6.10;99.90;;;;;;5056494;28;20209;-87
2023/01/31 09:04:19;;;;;;;17.00;5.37;;;6.10;99.90;;;;;;5064237;28;20208;-84
2023/01/31 09:06:46;;;;;;;15.93;6.37;;;6.20;99.90;;;;;;5074215;28;20211;-86
2023/01/31 09:09:15;;;;;;;17.97;6.33;;;6.20;99.90;;;;;;5075782;28;20196;-88
2023/01/31 09:12:04;;;;;;;21.00;6.50;;;6.30;99.90;;;;;;5077479;28;20188;-84
2023/01/31 09:14:44;;;;;;;20.10;5.67;;;6.30;99.90;;;;;;5070911;28;20187;-88
2023/01/31 09:17:10;;;;;;;14.67;5.73;;;6.40;99.90;;;;;;5061137;28;20161;-86
2023/01/31 09:19:38;;;;;;;17.10;5.33;;;6.40;99.90;;;;;;5071408;28;20177;-84
2023/01/31 09:22:04;;;;;;;14.47;5.97;;;6.50;99.90;;;;;;5070148;28;20188;-86
2023/01/31 09:24:31;;;;;;;20.10;6.03;;;6.60;99.90;;;;;;5065001;28;20211;-87
2023/01/31 09:26:57;;;;;;;13.90;5.77;;;6.70;99.90;;;;;;5063164;28;20283;-87
2023/01/31 09:29:24;;;;;;;19.33;5.70;;;6.70;99.60;;;;;;5057432;28;20199;-84
2023/01/31 09:31:55;;;;;;;18.37;5.87;;;6.80;99.60;;;;;;5057319;28;20180;-86
2023/01/31 09:34:21;;;;;;;21.17;6.30;;;6.80;98.30;;;;;;5056904;28;20319;-87
2023/01/31 09:36:47;;;;;;;16.20;6.20;;;6.80;97.40;;;;;;5058377;28;20197;-85
2023/01/31 09:39:14;;;;;;;17.77;5.23;;;6.90;97.00;;;;;;5057940;28;20177;-84
2023/01/31 09:41:46;;;;;;;17.77;5.30;;;7.00;95.90;;;;;;5058362;28;20169;-89
2023/01/31 09:44:18;;;;;;;20.87;6.17;;;6.70;96.30;;;;;;5057406;28;20293;-87
2023/01/31 09:47:15;;;;;;;14.03;5.63;;;6.90;95.60;;;;;;5075345;28;20195;-84
2023/01/31 09:50:11;;;;;;;14.07;4.97;;;6.90;95.50;;;;;;5074741;28;20157;-85
2023/01/31 09:52:37;;;;;;;17.07;6.83;;;6.90;95.70;;;;;;5065376;28;20200;-85
2023/01/31 09:55:06;;;;;;;13.77;6.20;;;6.90;95.50;;;;;;5063451;28;20197;-84
2023/01/31 09:58:04;;;;;;;14.93;5.90;;;7.00;95.50;;;;;;5074425;28;20165;-87
2023/01/31 10:00:45;;;;;;;17.80;5.73;;;6.90;95.60;;;;;;5050643;28;20181;-84
2023/01/31 10:03:52;;;;;;;16.53;5.43;;;7.00;96.40;;;;;;5069122;28;20165;-84
2023/01/31 10:06:59;;;;;;;15.60;5.83;;;6.90;97.10;;;;;;5060588;28;20274;-86
2023/01/31 10:09:32;;;;;;;22.40;6.27;;;6.90;97.70;;;;;;5060950;28;20714;-87
2023/01/31 10:12:04;;;;;;;19.90;6.40;;;6.80;98.30;;;;;;5068823;28;20161;-85
2023/01/31 10:14:59;;;;;;;22.80;5.63;;;7.00;98.50;;;;;;5074869;28;20181;-84
2023/01/31 10:17:37;;;;;;;17.27;5.47;;;7.00;97.80;;;;;;5065852;28;20257;-87
2023/01/31 10:20:37;;;;;;;19.83;6.27;;;7.00;97.40;;;;;;5057341;28;20168;-88
2023/01/31 10:23:22;;;;;;;18.63;5.83;;;7.10;96.40;;;;;;5069451;28;20184;-85
2023/01/31 10:26:12;;;;;;;18.33;6.60;;;7.10;95.90;;;;;;5072865;28;20209;-87
2023/01/31 10:29:00;;;;;;;17.40;6.10;;;7.30;95.30;;;;;;5063647;28;20256;-89
2023/01/31 10:31:41;;;;;;;22.07;6.23;;;7.20;95.30;;;;;;5059525;28;20225;-88
2023/01/31 10:34:27;;;;;;;18.80;6.07;;;7.20;93.90;;;;;;5060638;28;20225;-88
2023/01/31 10:37:00;;;;;;;13.57;6.03;;;7.20;93.80;;;;;;5059067;28;20248;-87
2023/01/31 10:39:43;;;;;;;17.90;6.53;;;7.30;92.80;;;;;;5062552;28;20191;-87
2023/01/31 10:42:31;;;;;;;15.60;6.43;;;7.30;90.90;;;;;;5077845;28;20157;-88
2023/01/31 10:45:07;;;;;;;17.23;6.57;;;7.40;90.50;;;;;;5075982;28;20209;-88
2023/01/31 10:47:36;;;;;;;16.03;6.27;;;7.40;90.30;;;;;;5060620;28;20177;-86
2023/01/31 10:50:24;;;;;;;16.83;7.03;;;7.60;87.60;;;;;;5057485;28;20207;-87
2023/01/31 10:53:26;;;;;;;16.17;6.30;;;7.70;83.80;;;;;;5056102;28;20235;-86
2023/01/31 10:56:09;;;;;;;16.23;5.73;;;7.70;79.30;;;;;;5061191;28;20177;-86
2023/01/31 10:58:36;;;;;;;17.83;7.07;;;7.70;79.00;;;;;;5064266;28;20172;-83
2023/01/31 11:01:13;;;;;;;22.27;7.23;;;7.90;79.40;;;;;;5066770;28;20169;-87
2023/01/31 11:03:48;;;;;;;16.70;6.30;;;7.90;77.70;;;;;;5043297;28;20196;-87
2023/01/31 11:06:14;;;;;;;18.83;6.90;;;7.90;72.50;;;;;;5036423;28;20217;-86
2023/01/31 11:09:06;;;;;;;17.00;6.50;;;8.00;72.10;;;;;;5035247;28;20174;-86
2023/01/31 11:11:52;;;;;;;15.60;6.77;;;8.10;69.60;;;;;;5038465;28;20223;-85
2023/01/31 11:14:18;;;;;;;17.83;6.77;;;8.20;59.20;;;;;;5059507;28;20200;-86
2023/01/31 11:16:44;;;;;;;17.77;6.93;;;8.10;62.80;;;;;;5058729;28;20180;-86
2023/01/31 11:19:33;;;;;;;17.50;8.17;;;8.20;59.40;;;;;;5076330;28;20188;-84
2023/01/31 11:21:59;;;;;;;18.43;6.23;;;8.20;57.60;;;;;;5076337;28;20189;-85
2023/01/31 11:24:31;;;;;;;17.30;6.63;;;8.20;58.50;;;;;;5071222;28;20268;-84
2023/01/31 11:27:10;;;;;;;15.77;6.80;;;8.20;60.70;;;;;;5058673;28;20215;-87
2023/01/31 11:29:49;;;;;;;14.80;6.77;;;8.20;60.60;;;;;;5060492;28;20176;-84
2023/01/31 11:32:22;;;;;;;21.43;5.77;;;8.30;62.10;;;;;;5060230;28;20168;-90
2023/01/31 11:35:04;;;;;;;13.70;6.40;;;8.20;60.60;;;;;;5061235;28;20176;-88
2023/01/31 11:37:35;;;;;;;12.80;6.63;;;8.20;59.70;;;;;;5070855;28;20172;-84
2023/01/31 11:40:14;;;;;;;16.37;6.80;;;8.40;59.20;;;;;;5066652;28;20255;-85
2023/01/31 11:43:01;;;;;;;16.63;7.00;;;8.40;57.90;;;;;;5047707;28;20180;-86
2023/01/31 11:45:34;;;;;;;15.37;6.43;;;8.30;60.90;;;;;;5066119;28;20232;-85
2023/01/31 11:48:31;;;;;;;17.00;6.10;;;8.30;60.00;;;;;;5069712;28;20165;-85
2023/01/31 11:51:00;;;;;;;14.77;6.80;;;8.40;60.30;;;;;;5071207;28;20555;-88
2023/01/31 11:53:37;;;;;;;17.40;6.90;;;8.50;56.70;;;;;;5059059;28;20220;-86
2023/01/31 11:56:24;;;;;;;16.83;6.67;;;8.50;56.40;;;;;;5059517;28;20176;-87
2023/01/31 11:58:55;;;;;;;14.70;6.33;;;8.50;57.90;;;;;;5057190;28;20258;-86
2023/01/31 12:01:23;;;;;;;15.40;6.73;;;8.50;60.60;;;;;;5056068;28;20176;-89
2023/01/31 12:04:04;;;;;;;16.27;6.90;;;8.50;60.80;;;;;;5055900;28;20226;-88
2023/01/31 12:06:37;;;;;;;19.03;5.90;;;8.50;62.20;;;;;;5067714;28;20215;-86
2023/01/31 12:09:17;;;;;;;17.30;6.57;;;8.60;63.40;;;;;;5061274;28;20195;-89
2023/01/31 12:12:00;;;;;;;16.60;6.37;;;8.60;60.90;;;;;;5055945;28;20181;-86
2023/01/31 12:14:40;;;;;;;16.97;6.30;;;8.60;60.60;;;;;;5059298;28;20199;-85
2023/01/31 12:17:19;;;;;;;16.33;6.00;;;8.60;59.60;;;;;;5064937;28;20200;-87
2023/01/31 12:20:13;;;;;;;14.23;6.17;;;8.60;60.50;;;;;;5049939;28;20172;-84
2023/01/31 12:22:49;;;;;;;14.23;6.57;;;8.60;64.40;;;;;;5069605;28;20214;-87
2023/01/31 12:25:48;;;;;;;17.07;6.73;;;8.50;65.70;;;;;;5058900;28;20574;-87
2023/01/31 12:28:53;;;;;;;15.37;6.47;;;8.50;69.80;;;;;;5055593;28;20184;-89
2023/01/31 12:31:36;;;;;;;15.60;6.17;;;8.50;73.70;;;;;;5057414;28;20169;-86
2023/01/31 12:34:14;;;;;;;22.13;7.13;;;8.40;78.30;;;;;;5063003;28;20219;-87
2023/01/31 12:37:05;;;;;;;17.30;6.90;;;8.40;82.00;;;;;;5063881;28;20168;-87
2023/01/31 12:39:40;;;;;;;18.67;6.83;;;8.40;81.80;;;;;;5060557;28;20298;-88
2023/01/31 12:42:30;;;;;;;19.47;6.83;;;8.40;80.30;;;;;;5059565;28;20263;-88
2023/01/31 12:45:08;;;;;;;17.70;7.00;;;8.40;83.00;;;;;;5063053;28;20212;-88
2023/01/31 12:47:52;;;;;;;17.97;7.10;;;8.40;84.60;;;;;;5063759;28;20184;-84
2023/01/31 12:50:23;;;;;;;16.50;6.67;;;8.40;85.50;;;;;;5059789;28;20169;-87
2023/01/31 12:53:23;;;;;;;20.40;7.30;;;8.40;85.70;;;;;;5059325;28;20169;-88
2023/01/31 12:56:15;;;;;;;17.63;7.03;;;8.50;85.50;;;;;;5069958;28;20161;-86
2023/01/31 12:58:49;;;;;;;19.17;8.17;;;8.60;88.90;;;;;;5079269;28;20204;-84
2023/01/31 13:01:30;;;;;;;19.77;7.73;;;8.60;90.60;;;;;;5075779;28;20236;-85
2023/01/31 13:04:24;;;;;;;20.10;7.57;;;8.60;93.20;;;;;;5076086;28;20534;-86
2023/01/31 13:06:55;;;;;;;18.60;7.47;;;8.70;94.80;;;;;;5072034;28;20259;-86
2023/01/31 13:09:31;;;;;;;16.57;7.13;;;8.60;97.60;;;;;;5066355;28;20204;-86
2023/01/31 13:12:19;;;;;;;21.13;7.67;;;8.60;99.90;;;;;;5059850;28;20554;-87
2023/01/31 13:14:57;;;;;;;18.77;8.53;;;8.40;99.90;;;;;;5059953;28;20260;-88
2023/01/31 13:17:26;;;;;;;20.67;8.10;;;8.40;99.90;;;;;;5059289;28;20161;-85
2023/01/31 13:20:12;;;;;;;20.73;8.77;;;8.60;99.90;;;;;;5057601;28;20204;-86
2023/01/31 13:22:50;;;;;;;18.10;8.43;;;8.60;99.90;;;;;;5066613;28;20184;-85
2023/01/31 13:25:29;;;;;;;18.37;8.70;;;8.50;99.90;;;;;;5069636;28;20207;-86
2023/01/31 13:28:16;;;;;;;25.30;8.60;;;8.40;99.90;;;;;;5069362;28;20160;-87
2023/01/31 13:30:49;;;;;;;20.87;9.13;;;8.50;99.90;;;;;;5079097;28;20164;-86
2023/01/31 13:33:43;;;;;;;27.63;9.90;;;8.60;99.90;;;;;;5071488;28;20173;-85